sensor_id;sensor_type;location;lat;lon;timestamp;P1;durP1;ratioP1;P2;durP2;ratioP2
15970;SDS011;59785;52.582;13.892;2022-10-31T16:10:45;28.10;;;17.80;;
15970;SDS011;59785;52.582;13.892;2022-10-31T22:13:36;71.45;;;35.35;;
15970;SDS011;59785;52.582;13.892;2022-10-31T22:16:03;69.63;;;37.13;;
15970;SDS011;59785;52.582;13.892;2022-10-31T22:18:31;92.65;;;40.20;;
15970;SDS011;59785;52.582;13.892;2022-10-31T22:21:01;86.05;;;41.28;;
15970;SDS011;59785;52.582;13.892;2022-10-31T22:23:32;97.72;;;44.30;;
15970;SDS011;59785;52.582;13.892;2022-10-31T22:26:03;81.95;;;44.35;;
15970;SDS011;59785;52.582;13.892;2022-10-31T22:28:31;87.63;;;44.00;;
15970;SDS011;59785;52.582;13.892;2022-10-31T22:30:57;88.70;;;44.75;;
15970;SDS011;59785;52.582;13.892;2022-10-31T22:33:27;96.68;;;44.28;;
15970;SDS011;59785;52.582;13.892;2022-10-31T22:35:54;91.40;;;43.92;;
15970;SDS011;59785;52.582;13.892;2022-10-31T22:38:20;90.80;;;45.10;;
15970;SDS011;59785;52.582;13.892;2022-10-31T22:40:46;89.13;;;46.40;;
15970;SDS011;59785;52.582;13.892;2022-10-31T22:43:12;97.25;;;46.05;;
15970;SDS011;59785;52.582;13.892;2022-10-31T22:45:38;96.60;;;46.03;;
15970;SDS011;59785;52.582;13.892;2022-10-31T22:48:05;92.97;;;45.33;;
15970;SDS011;59785;52.582;13.892;2022-10-31T22:50:31;91.00;;;46.33;;
15970;SDS011;59785;52.582;13.892;2022-10-31T22:52:57;91.22;;;44.78;;
15970;SDS011;59785;52.582;13.892;2022-10-31T22:55:23;92.10;;;45.05;;
15970;SDS011;59785;52.582;13.892;2022-10-31T22:57:49;99.95;;;47.47;;
15970;SDS011;59785;52.582;13.892;2022-10-31T23:00:16;108.43;;;49.60;;
15970;SDS011;59785;52.582;13.892;2022-10-31T23:02:43;94.90;;;47.67;;
15970;SDS011;59785;52.582;13.892;2022-10-31T23:05:09;92.25;;;45.78;;
15970;SDS011;59785;52.582;13.892;2022-10-31T23:07:35;143.02;;;50.60;;
15970;SDS011;59785;52.582;13.892;2022-10-31T23:10:01;106.45;;;51.30;;
15970;SDS011;59785;52.582;13.892;2022-10-31T23:12:28;116.75;;;51.38;;
15970;SDS011;59785;52.582;13.892;2022-10-31T23:15:13;117.05;;;50.90;;
15970;SDS011;59785;52.582;13.892;2022-10-31T23:17:39;121.00;;;52.40;;
15970;SDS011;59785;52.582;13.892;2022-10-31T23:20:05;118.45;;;52.30;;
15970;SDS011;59785;52.582;13.892;2022-10-31T23:22:31;113.97;;;53.55;;
15970;SDS011;59785;52.582;13.892;2022-10-31T23:24:58;121.07;;;54.08;;
15970;SDS011;59785;52.582;13.892;2022-10-31T23:27:24;126.35;;;54.30;;
15970;SDS011;59785;52.582;13.892;2022-10-31T23:29:51;132.68;;;54.22;;
15970;SDS011;59785;52.582;13.892;2022-10-31T23:32:19;110.82;;;54.00;;
15970;SDS011;59785;52.582;13.892;2022-10-31T23:34:48;126.53;;;56.53;;
15970;SDS011;59785;52.582;13.892;2022-10-31T23:37:17;124.47;;;57.17;;
15970;SDS011;59785;52.582;13.892;2022-10-31T23:39:45;122.13;;;55.55;;
15970;SDS011;59785;52.582;13.892;2022-10-31T23:42:12;118.22;;;55.72;;
15970;SDS011;59785;52.582;13.892;2022-10-31T23:44:38;120.72;;;55.00;;
15970;SDS011;59785;52.582;13.892;2022-10-31T23:47:05;121.03;;;55.17;;
15970;SDS011;59785;52.582;13.892;2022-10-31T23:49:31;127.45;;;56.10;;
15970;SDS011;59785;52.582;13.892;2022-10-31T23:51:57;122.63;;;56.97;;
15970;SDS011;59785;52.582;13.892;2022-10-31T23:54:24;116.60;;;54.97;;
15970;SDS011;59785;52.582;13.892;2022-10-31T23:56:51;119.32;;;57.00;;
15970;SDS011;59785;52.582;13.892;2022-10-31T23:59:18;126.75;;;58.20;;
